Nippon Maru — JNNU — position and weather

sailwx.info

Track history (hours):
 
Tides and Currents Weather Stations Pressure Air Temp Water Temp Dewpoint Dewpoint Depression Visibility Wind Speed Wind Dir Waves Ship Positions

Nippon Maru

Last reported at 2017-Mar-24 07:32 UTC. Time now 2017-Mar-24 19:57 UTC.
Position N 33°45' E 132°18'.

Length 166 m; draft 6.5 m.

Type: Passenger vessel. MMSI: 431302000.

Date/timePositionNaut miles runAvg speedWind from/ knotsBaromVisibWave heightAir tempDewpointWater temp
2017-Mar-24 07:32N 33°45' E 132°18'1818.5
2017-Mar-24 06:33N 33°54' E 132°37'127 9.7
2017-Mar-23 17:32N 34°37' E 135°01'8 8.1
2017-Mar-23 16:33N 34°31' E 135°07'1514.5
2017-Mar-23 15:33N 34°18' E 134°60'1313.4
2017-Mar-23 14:34N 34°05' E 134°60'  
2017-Mar-20 09:23N 34°07' E 134°58'1814.2
2017-Mar-20 08:07N 34°24' E 135°02'1017.3
2017-Mar-20 07:33N 34°33' E 135°07'8 8.5
2017-Mar-20 06:33N 34°41' E 135°11'0 0.0
2017-Mar-20 05:27N 34°41' E 135°11'0 0.0
2017-Mar-20 04:21N 34°41' E 135°11'0 0.0
2017-Mar-20 03:27N 34°41' E 135°11'0 0.0
2017-Mar-20 02:27N 34°41' E 135°11'0 0.0
2017-Mar-20 01:21N 34°41' E 135°11'0 0.2
2017-Mar-20 00:33N 34°41' E 135°11'1111.0
2017-Mar-19 23:33N 34°30' E 135°07'1716.9
2017-Mar-19 22:33N 34°15' E 134°59'10 9.8
2017-Mar-19 21:33N 34°05' E 134°59'  
2017-Mar-16 10:27N 34°08' E 134°56'1515.1
2017-Mar-16 09:28N 34°22' E 135°00'1718.2
2017-Mar-16 08:33N 34°37' E 135°10'4 4.1
2017-Mar-16 07:33N 34°41' E 135°11'0 0.0
2017-Mar-16 06:29N 34°41' E 135°11'0 0.0
2017-Mar-16 05:29N 34°41' E 135°11'0 0.0
2017-Mar-16 04:29N 34°41' E 135°11'0 0.0
2017-Mar-16 03:23N 34°41' E 135°11'0 0.0
2017-Mar-16 02:17N 34°41' E 135°11'0 0.0
2017-Mar-16 01:29N 34°41' E 135°11'0 0.0
2017-Mar-16 00:29N 34°41' E 135°11'0 0.0
2017-Mar-15 23:29N 34°41' E 135°11'0 0.0
2017-Mar-15 22:29N 34°41' E 135°11'0 0.0
2017-Mar-15 21:29N 34°41' E 135°11'0 0.0
2017-Mar-15 20:29N 34°41' E 135°11'0 0.0
2017-Mar-15 19:29N 34°41' E 135°11'0 0.0
2017-Mar-15 18:29N 34°41' E 135°11'0 0.0
2017-Mar-15 17:29N 34°41' E 135°11'0 0.0
2017-Mar-15 16:29N 34°41' E 135°11'0 0.0
2017-Mar-15 15:23N 34°41' E 135°11'0 0.0
2017-Mar-15 14:29N 34°41' E 135°11'0 0.0
2017-Mar-15 13:23N 34°41' E 135°11'0 0.0
2017-Mar-15 12:29N 34°41' E 135°11'0 0.0
2017-Mar-15 11:10N 34°41' E 135°11'0 0.0
2017-Mar-15 10:28N 34°41' E 135°11'0 0.0
2017-Mar-15 09:16N 34°41' E 135°11'0 0.0
2017-Mar-15 08:28N 34°41' E 135°11'0 0.0
2017-Mar-15 07:16N 34°41' E 135°11'1 1.5
2017-Mar-15 06:34N 34°40' E 135°12'1010.1
2017-Mar-15 05:33N 34°30' E 135°07'1413.9
2017-Mar-15 04:33N 34°18' E 134°60'1313.5
2017-Mar-15 03:33N 34°04' E 135°01'23214.4
2017-Mar-14 11:29N 34°59' E 139°34'1516.8
2017-Mar-14 10:33N 35°12' E 139°46'1212.4
2017-Mar-14 09:33N 35°24' E 139°43'1211.9
2017-Mar-14 08:33N 35°35' E 139°47'4 3.6
2017-Mar-14 07:33N 35°39' E 139°46'  
Track history (hours):
 
Tides and Currents Weather Stations Pressure Air Temp Water Temp Dewpoint Dewpoint Depression Visibility Wind Speed Wind Dir Waves Ship Positions

Nippon Maru

Last reported at 2017-Mar-24 07:32 UTC. Time now 2017-Mar-24 19:57 UTC.
Position N 33°45' E 132°18'.

Length 166 m; draft 6.5 m.

Type: Passenger vessel. MMSI: 431302000.

Date/timePositionNaut miles runAvg speedWind from/ knotsBaromVisibWave heightAir tempDewpointWater temp
2017-Mar-24 07:32N 33°45' E 132°18'1818.5
2017-Mar-24 06:33N 33°54' E 132°37'127 9.7
2017-Mar-23 17:32N 34°37' E 135°01'8 8.1
2017-Mar-23 16:33N 34°31' E 135°07'1514.5
2017-Mar-23 15:33N 34°18' E 134°60'1313.4
2017-Mar-23 14:34N 34°05' E 134°60'  
2017-Mar-20 09:23N 34°07' E 134°58'1814.2
2017-Mar-20 08:07N 34°24' E 135°02'1017.3
2017-Mar-20 07:33N 34°33' E 135°07'8 8.5
2017-Mar-20 06:33N 34°41' E 135°11'0 0.0
2017-Mar-20 05:27N 34°41' E 135°11'0 0.0
2017-Mar-20 04:21N 34°41' E 135°11'0 0.0
2017-Mar-20 03:27N 34°41' E 135°11'0 0.0
2017-Mar-20 02:27N 34°41' E 135°11'0 0.0
2017-Mar-20 01:21N 34°41' E 135°11'0 0.2
2017-Mar-20 00:33N 34°41' E 135°11'1111.0
2017-Mar-19 23:33N 34°30' E 135°07'1716.9
2017-Mar-19 22:33N 34°15' E 134°59'10 9.8
2017-Mar-19 21:33N 34°05' E 134°59'  
2017-Mar-16 10:27N 34°08' E 134°56'1515.1
2017-Mar-16 09:28N 34°22' E 135°00'1718.2
2017-Mar-16 08:33N 34°37' E 135°10'4 4.1
2017-Mar-16 07:33N 34°41' E 135°11'0 0.0
2017-Mar-16 06:29N 34°41' E 135°11'0 0.0
2017-Mar-16 05:29N 34°41' E 135°11'0 0.0
2017-Mar-16 04:29N 34°41' E 135°11'0 0.0
2017-Mar-16 03:23N 34°41' E 135°11'0 0.0
2017-Mar-16 02:17N 34°41' E 135°11'0 0.0
2017-Mar-16 01:29N 34°41' E 135°11'0 0.0
2017-Mar-16 00:29N 34°41' E 135°11'0 0.0
2017-Mar-15 23:29N 34°41' E 135°11'0 0.0
2017-Mar-15 22:29N 34°41' E 135°11'0 0.0
2017-Mar-15 21:29N 34°41' E 135°11'0 0.0
2017-Mar-15 20:29N 34°41' E 135°11'0 0.0
2017-Mar-15 19:29N 34°41' E 135°11'0 0.0
2017-Mar-15 18:29N 34°41' E 135°11'0 0.0
2017-Mar-15 17:29N 34°41' E 135°11'0 0.0
2017-Mar-15 16:29N 34°41' E 135°11'0 0.0
2017-Mar-15 15:23N 34°41' E 135°11'0 0.0
2017-Mar-15 14:29N 34°41' E 135°11'0 0.0
2017-Mar-15 13:23N 34°41' E 135°11'0 0.0
2017-Mar-15 12:29N 34°41' E 135°11'0 0.0
2017-Mar-15 11:10N 34°41' E 135°11'0 0.0
2017-Mar-15 10:28N 34°41' E 135°11'0 0.0
2017-Mar-15 09:16N 34°41' E 135°11'0 0.0
2017-Mar-15 08:28N 34°41' E 135°11'0 0.0
2017-Mar-15 07:16N 34°41' E 135°11'1 1.5
2017-Mar-15 06:34N 34°40' E 135°12'1010.1
2017-Mar-15 05:33N 34°30' E 135°07'1413.9
2017-Mar-15 04:33N 34°18' E 134°60'1313.5
2017-Mar-15 03:33N 34°04' E 135°01'23214.4
2017-Mar-14 11:29N 34°59' E 139°34'1516.8
2017-Mar-14 10:33N 35°12' E 139°46'1212.4
2017-Mar-14 09:33N 35°24' E 139°43'1211.9
2017-Mar-14 08:33N 35°35' E 139°47'4 3.6
2017-Mar-14 07:33N 35°39' E 139°46'  

Dump ship's entire track history